Time;durP1;ratioP1;P1;durP2;ratioP2;P2;SDS_P1;SDS_P2;PMS_P1;PMS_P2;Temp;Humidity;BMP_temperature;BMP_pressure;BME280_temperature;BME280_humidity;BME280_pressure;Samples;Min_cycle;Max_cycle;Signal;HPM_P1;HPM_P2
2023/11/21 00:05:19;;;;;;;;;;;8.60;99.90;;;;;;6645245;89;20046;-78
2023/11/21 00:15:20;;;;;;;;;;;8.70;99.90;;;;;;6638005;89;20062;-79
2023/11/21 00:36:22;;;;;;;;;;;8.70;99.90;;;;;;6683999;89;20021;-80
2023/11/21 00:46:24;;;;;;;;;;;8.60;99.90;;;;;;6666506;88;20038;-84
2023/11/21 00:56:24;;;;;;;;;;;8.70;99.90;;;;;;6665600;89;20055;-80
2023/11/21 01:06:24;;;;;;;;;;;8.70;99.90;;;;;;6665759;89;20777;-80
2023/11/21 01:16:25;;;;;;;;;;;8.70;99.90;;;;;;6635788;89;20032;-80
2023/11/21 01:26:25;;;;;;;;;;;8.80;99.90;;;;;;6631770;89;20070;-81
2023/11/21 01:36:32;;;;;;;;;;;8.80;99.90;;;;;;6631663;89;20036;-81
2023/11/21 01:46:33;;;;;;;;;;;8.70;99.90;;;;;;6633483;89;20961;-80
2023/11/21 01:56:34;;;;;;;;;;;8.80;99.90;;;;;;6631108;89;20050;-80
2023/11/21 02:06:34;;;;;;;;;;;8.70;99.90;;;;;;6631112;89;20091;-81
2023/11/21 02:16:35;;;;;;;;;;;8.60;99.90;;;;;;6643966;89;20109;-80
2023/11/21 02:26:35;;;;;;;;;;;8.70;99.90;;;;;;6662537;89;20683;-81
2023/11/21 02:36:37;;;;;;;;;;;8.60;99.90;;;;;;6614271;89;20031;-80
2023/11/21 02:46:37;;;;;;;;;;;8.60;99.90;;;;;;6614536;89;20116;-81
2023/11/21 02:56:39;;;;;;;;;;;8.60;99.90;;;;;;6614285;89;20032;-81
2023/11/21 03:06:40;;;;;;;;;;;8.60;99.90;;;;;;6655183;89;20700;-81
2023/11/21 03:16:41;;;;;;;;;;;8.60;99.90;;;;;;6663816;89;20121;-82
2023/11/21 03:26:41;;;;;;;;;;;8.60;99.90;;;;;;6665745;89;20117;-80
2023/11/21 03:36:41;;;;;;;;;;;8.50;99.90;;;;;;6664299;89;20634;-82
2023/11/21 03:46:42;;;;;;;;;;;8.40;99.90;;;;;;6664763;89;20138;-82
2023/11/21 03:56:42;;;;;;;;;;;8.50;99.90;;;;;;6666096;89;20040;-85
2023/11/21 04:06:43;;;;;;;;;;;8.50;99.90;;;;;;6613816;89;20054;-82
2023/11/21 04:16:43;;;;;;;;;;;8.50;99.90;;;;;;6613894;89;20052;-81
2023/11/21 04:26:44;;;;;;;;;;;8.50;99.90;;;;;;6613364;89;20083;-82
2023/11/21 04:36:45;;;;;;;;;;;8.40;99.90;;;;;;6653783;89;20076;-82
2023/11/21 04:46:45;;;;;;;;;;;8.40;99.90;;;;;;6664726;89;20278;-81
2023/11/21 04:56:45;;;;;;;;;;;8.40;99.90;;;;;;6659289;89;20038;-82
2023/11/21 05:06:46;;;;;;;;;;;8.30;99.90;;;;;;6612390;89;20323;-81
2023/11/21 05:16:46;;;;;;;;;;;8.40;99.90;;;;;;6613038;89;20091;-81
2023/11/21 05:26:47;;;;;;;;;;;8.40;99.90;;;;;;6614865;89;20055;-81
2023/11/21 05:36:48;;;;;;;;;;;8.40;99.90;;;;;;6655871;89;20037;-82
2023/11/21 05:46:48;;;;;;;;;;;8.30;99.90;;;;;;6667146;89;20051;-81
2023/11/21 05:56:49;;;;;;;;;;;8.20;99.90;;;;;;6666733;89;20052;-81
2023/11/21 06:06:50;;;;;;;;;;;8.30;99.90;;;;;;6666266;89;20584;-83
2023/11/21 06:16:52;;;;;;;;;;;8.30;99.90;;;;;;6665755;89;20033;-79
2023/11/21 06:37:34;;;;;;;;;;;8.30;99.90;;;;;;6643532;89;20203;-77
2023/11/21 06:47:34;;;;;;;;;;;8.30;99.90;;;;;;6640385;89;20128;-78
2023/11/21 06:57:35;;;;;;;;;;;8.20;99.90;;;;;;6647930;89;20099;-79
2023/11/21 07:07:36;;;;;;;;;;;8.30;99.90;;;;;;6644647;89;20237;-79
2023/11/21 07:17:37;;;;;;;;;;;8.30;99.90;;;;;;6652199;89;20136;-78
2023/11/21 07:27:37;;;;;;;;;;;8.40;99.90;;;;;;6648397;89;20056;-79
2023/11/21 07:37:38;;;;;;;;;;;8.30;99.90;;;;;;6645305;89;20186;-79
2023/11/21 07:47:39;;;;;;;;;;;8.40;99.90;;;;;;6643156;89;20144;-79
2023/11/21 07:57:39;;;;;;;;;;;8.40;99.90;;;;;;6642239;89;20669;-78
2023/11/21 08:07:40;;;;;;;;;;;8.40;99.90;;;;;;6642937;89;20070;-78
2023/11/21 08:17:40;;;;;;;;;;;8.50;99.90;;;;;;6639965;89;20098;-78
2023/11/21 08:27:41;;;;;;;;;;;8.60;99.90;;;;;;6649364;89;20131;-79
2023/11/21 08:37:41;;;;;;;;;;;8.80;99.90;;;;;;6649465;89;20105;-79
2023/11/21 08:47:43;;;;;;;;;;;8.90;99.90;;;;;;6646245;89;20050;-78
2023/11/21 08:57:45;;;;;;;;;;;9.10;99.90;;;;;;6652451;88;20075;-79
2023/11/21 09:07:46;;;;;;;;;;;9.20;99.90;;;;;;6646108;89;20200;-79
2023/11/21 09:17:47;;;;;;;;;;;9.30;99.90;;;;;;6646487;89;20045;-78
2023/11/21 09:27:47;;;;;;;;;;;9.30;99.90;;;;;;6647170;89;20241;-79
2023/11/21 09:37:48;;;;;;;;;;;9.20;99.90;;;;;;6647807;89;20054;-79
2023/11/21 09:47:49;;;;;;;;;;;9.20;99.90;;;;;;6647772;89;20066;-79
2023/11/21 09:57:50;;;;;;;;;;;9.20;99.90;;;;;;6650754;89;20069;-79
2023/11/21 10:07:50;;;;;;;;;;;9.40;99.90;;;;;;6647725;89;20058;-79
2023/11/21 10:17:53;;;;;;;;;;;9.60;99.90;;;;;;6648762;89;20109;-79
2023/11/21 10:28:01;;;;;;;;;;;9.70;99.90;;;;;;6647962;89;20147;-78
2023/11/21 10:38:03;;;;;;;;;;;9.80;99.90;;;;;;6652191;89;20095;-79
2023/11/21 10:48:08;;;;;;;;;;;9.80;99.90;;;;;;6665060;89;20090;-80
2023/11/21 10:58:10;;;;;;;;;;;9.90;99.90;;;;;;6650060;89;20057;-80
2023/11/21 11:08:12;;;;;;;;;;;10.00;99.90;;;;;;6653236;89;20123;-78
2023/11/21 11:18:13;;;;;;;;;;;10.10;99.90;;;;;;6649963;89;20130;-80
2023/11/21 11:28:22;;;;;;;;;;;10.10;99.90;;;;;;6645827;89;20952;-80
2023/11/21 11:38:23;;;;;;;;;;;10.10;99.90;;;;;;6645838;89;20124;-79
2023/11/21 11:48:23;;;;;;;;;;;10.10;99.90;;;;;;6646132;89;20058;-79
2023/11/21 11:58:37;;;;;;;;;;;10.30;99.90;;;;;;6667373;89;20072;-81
2023/11/21 12:08:38;;;;;;;;;;;10.20;99.90;;;;;;6637675;89;20059;-81
2023/11/21 12:18:38;;;;;;;;;;;10.20;99.90;;;;;;6599818;90;20536;-80
2023/11/21 12:39:41;;;;;;;;;;;10.50;99.90;;;;;;6702091;88;20855;-83
2023/11/21 12:49:44;;;;;;;;;;;10.40;99.90;;;;;;6665334;89;20055;-83
2023/11/21 12:59:45;;;;;;;;;;;10.60;99.90;;;;;;6665774;89;20063;-84
2023/11/21 13:09:46;;;;;;;;;;;10.40;99.90;;;;;;6648853;89;20026;-83
2023/11/21 13:19:46;;;;;;;;;;;10.60;99.90;;;;;;6651578;89;20047;-82
2023/11/21 13:29:47;;;;;;;;;;;10.50;99.90;;;;;;6632048;89;20055;-83
2023/11/21 13:39:49;;;;;;;;;;;10.70;99.90;;;;;;6646284;89;20107;-83
2023/11/21 13:49:50;;;;;;;;;;;10.70;99.90;;;;;;6665001;89;20084;-82
2023/11/21 13:59:51;;;;;;;;;;;10.50;99.90;;;;;;6661666;89;20095;-84
2023/11/21 14:09:52;;;;;;;;;;;10.40;99.90;;;;;;6648341;89;20035;-85
2023/11/21 14:19:55;;;;;;;;;;;10.40;99.90;;;;;;6635217;89;20073;-84
2023/11/21 14:29:57;;;;;;;;;;;10.30;99.90;;;;;;6660731;88;20033;-85
2023/11/21 14:39:58;;;;;;;;;;;10.30;99.90;;;;;;6661500;89;20047;-84
2023/11/21 14:49:59;;;;;;;;;;;10.20;99.90;;;;;;6664773;89;20523;-84
2023/11/21 15:00:00;;;;;;;;;;;10.20;99.90;;;;;;6634759;89;20071;-85
2023/11/21 15:10:01;;;;;;;;;;;10.10;99.90;;;;;;6624526;89;20061;-86
2023/11/21 15:20:02;;;;;;;;;;;10.10;99.90;;;;;;6631201;89;20771;-84
2023/11/21 15:30:03;;;;;;;;;;;10.10;99.90;;;;;;6670719;89;20034;-85
2023/11/21 15:40:05;;;;;;;;;;;10.00;99.90;;;;;;6681017;88;20754;-85
2023/11/21 15:50:08;;;;;;;;;;;10.10;99.90;;;;;;6680898;89;20841;-83
2023/11/21 16:00:19;;;;;;;;;;;10.00;99.90;;;;;;6646359;89;20054;-83
2023/11/21 16:10:20;;;;;;;;;;;9.70;99.90;;;;;;6642260;89;20112;-79
2023/11/21 16:20:20;;;;;;;;;;;9.60;99.90;;;;;;6671636;89;20169;-80
2023/11/21 16:30:23;;;;;;;;;;;9.60;99.90;;;;;;6686834;89;20147;-80
2023/11/21 16:40:24;;;;;;;;;;;9.60;99.90;;;;;;6680917;89;20064;-78
2023/11/21 16:50:25;;;;;;;;;;;9.70;99.90;;;;;;6673262;89;20082;-79
2023/11/21 17:00:26;;;;;;;;;;;9.70;99.90;;;;;;6666777;89;20121;-78
2023/11/21 17:10:26;;;;;;;;;;;9.70;99.90;;;;;;6683681;89;20083;-79
2023/11/21 17:20:27;;;;;;;;;;;9.60;99.90;;;;;;6686570;89;20064;-79
2023/11/21 17:30:28;;;;;;;;;;;9.50;99.90;;;;;;6675209;89;20061;-79
2023/11/21 17:40:28;;;;;;;;;;;9.50;99.90;;;;;;6671186;89;20636;-79
2023/11/21 17:50:29;;;;;;;;;;;9.50;99.90;;;;;;6670718;89;20132;-79
2023/11/21 18:00:29;;;;;;;;;;;9.50;99.90;;;;;;6671891;89;20104;-79
2023/11/21 18:10:29;;;;;;;;;;;9.50;99.90;;;;;;6687597;89;20074;-79
2023/11/21 18:20:30;;;;;;;;;;;9.50;99.90;;;;;;6688537;88;20085;-79
2023/11/21 18:30:30;;;;;;;;;;;9.40;99.90;;;;;;6676309;89;20080;-77
2023/11/21 18:40:31;;;;;;;;;;;9.10;99.90;;;;;;6672171;89;20064;-78
2023/11/21 18:50:31;;;;;;;;;;;8.80;99.90;;;;;;6692854;88;20049;-80
2023/11/21 19:00:32;;;;;;;;;;;8.60;99.90;;;;;;6694945;88;20043;-79
2023/11/21 19:10:33;;;;;;;;;;;8.60;99.90;;;;;;6684533;88;20072;-78
2023/11/21 19:20:33;;;;;;;;;;;8.50;99.90;;;;;;6674422;88;20041;-79
2023/11/21 19:30:36;;;;;;;;;;;8.50;99.90;;;;;;6668176;88;20165;-79
2023/11/21 19:40:37;;;;;;;;;;;8.30;99.90;;;;;;6674531;88;20135;-80
2023/11/21 19:50:37;;;;;;;;;;;8.20;99.90;;;;;;6668538;89;20137;-80
2023/11/21 20:00:38;;;;;;;;;;;8.00;99.90;;;;;;6656674;89;20138;-81
2023/11/21 20:10:42;;;;;;;;;;;7.90;99.90;;;;;;6656807;89;20042;-80
2023/11/21 20:20:42;;;;;;;;;;;7.70;99.90;;;;;;6673869;89;20701;-81
2023/11/21 20:30:43;;;;;;;;;;;7.60;99.90;;;;;;6681229;89;20026;-82
2023/11/21 20:40:43;;;;;;;;;;;7.50;99.90;;;;;;6682214;89;20050;-81
2023/11/21 20:50:44;;;;;;;;;;;7.40;99.90;;;;;;6683714;89;20021;-81
2023/11/21 21:00:44;;;;;;;;;;;7.20;99.90;;;;;;6683947;89;20307;-83
2023/11/21 21:10:44;;;;;;;;;;;7.30;99.90;;;;;;6684028;89;20057;-82
2023/11/21 21:20:45;;;;;;;;;;;7.20;99.90;;;;;;6682636;89;20059;-82
2023/11/21 21:30:46;;;;;;;;;;;7.10;99.90;;;;;;6675628;89;20072;-81
2023/11/21 21:40:47;;;;;;;;;;;7.10;99.90;;;;;;6680825;88;20130;-83
2023/11/21 21:50:47;;;;;;;;;;;7.10;99.90;;;;;;6661359;89;20085;-82
2023/11/21 22:00:48;;;;;;;;;;;7.00;99.90;;;;;;6679455;89;20037;-82
2023/11/21 22:10:48;;;;;;;;;;;7.00;99.90;;;;;;6675073;89;20048;-82
2023/11/21 22:20:49;;;;;;;;;;;7.10;99.90;;;;;;6680651;89;20052;-82
2023/11/21 22:30:49;;;;;;;;;;;7.00;99.90;;;;;;6680451;89;20086;-82
2023/11/21 22:40:50;;;;;;;;;;;7.00;99.90;;;;;;6678406;89;20220;-83
2023/11/21 22:50:50;;;;;;;;;;;7.00;99.90;;;;;;6681268;89;20067;-81
2023/11/21 23:00:56;;;;;;;;;;;6.90;99.90;;;;;;6682811;89;20064;-80
2023/11/21 23:10:56;;;;;;;;;;;6.60;99.90;;;;;;6681039;89;20070;-81
2023/11/21 23:20:57;;;;;;;;;;;6.50;99.90;;;;;;6680417;89;20054;-81
2023/11/21 23:30:58;;;;;;;;;;;6.30;99.90;;;;;;6681965;89;20029;-81
2023/11/21 23:40:58;;;;;;;;;;;6.10;99.90;;;;;;6679897;89;20066;-81
2023/11/21 23:50:58;;;;;;;;;;;5.80;99.90;;;;;;6681832;89;20114;-83
